sensor_id;sensor_type;location;lat;lon;timestamp;temperature;humidity
86008;SHT30;76587;41.936;25.550;2024-02-21T00:00:38;6.39;83.06
86008;SHT30;76587;41.936;25.550;2024-02-21T00:03:04;6.37;83.18
86008;SHT30;76587;41.936;25.550;2024-02-21T00:05:30;6.32;83.64
86008;SHT30;76587;41.936;25.550;2024-02-21T00:07:56;6.30;83.64
86008;SHT30;76587;41.936;25.550;2024-02-21T00:10:21;6.25;83.61
86008;SHT30;76587;41.936;25.550;2024-02-21T00:12:47;6.22;83.64
86008;SHT30;76587;41.936;25.550;2024-02-21T00:15:12;6.19;83.73
86008;SHT30;76587;41.936;25.550;2024-02-21T00:17:37;6.15;83.81
86008;SHT30;76587;41.936;25.550;2024-02-21T00:20:03;6.19;83.74
86008;SHT30;76587;41.936;25.550;2024-02-21T00:22:29;6.22;83.52
86008;SHT30;76587;41.936;25.550;2024-02-21T00:24:56;6.18;83.43
86008;SHT30;76587;41.936;25.550;2024-02-21T00:27:23;6.12;83.54
86008;SHT30;76587;41.936;25.550;2024-02-21T00:29:48;6.12;83.44
86008;SHT30;76587;41.936;25.550;2024-02-21T00:32:14;6.09;83.48
86008;SHT30;76587;41.936;25.550;2024-02-21T00:34:39;6.12;83.48
86008;SHT30;76587;41.936;25.550;2024-02-21T00:37:05;6.09;83.49
86008;SHT30;76587;41.936;25.550;2024-02-21T00:39:31;6.12;83.48
86008;SHT30;76587;41.936;25.550;2024-02-21T00:41:56;6.13;83.66
86008;SHT30;76587;41.936;25.550;2024-02-21T00:44:21;6.13;83.73
86008;SHT30;76587;41.936;25.550;2024-02-21T00:46:47;6.22;83.60
86008;SHT30;76587;41.936;25.550;2024-02-21T00:49:12;6.25;83.29
86008;SHT30;76587;41.936;25.550;2024-02-21T00:51:38;6.28;83.21
86008;SHT30;76587;41.936;25.550;2024-02-21T00:54:03;6.25;83.20
86008;SHT30;76587;41.936;25.550;2024-02-21T00:56:29;6.20;83.18
86008;SHT30;76587;41.936;25.550;2024-02-21T00:58:55;6.13;82.91
86008;SHT30;76587;41.936;25.550;2024-02-21T01:01:25;6.05;83.04
86008;SHT30;76587;41.936;25.550;2024-02-21T01:03:51;6.06;83.20
86008;SHT30;76587;41.936;25.550;2024-02-21T01:06:19;6.05;83.60
86008;SHT30;76587;41.936;25.550;2024-02-21T01:08:46;6.08;83.53
86008;SHT30;76587;41.936;25.550;2024-02-21T01:11:12;6.13;83.34
86008;SHT30;76587;41.936;25.550;2024-02-21T01:13:37;6.13;83.58
86008;SHT30;76587;41.936;25.550;2024-02-21T01:16:03;6.10;83.75
86008;SHT30;76587;41.936;25.550;2024-02-21T01:18:29;6.16;84.04
86008;SHT30;76587;41.936;25.550;2024-02-21T01:20:54;6.19;84.19
86008;SHT30;76587;41.936;25.550;2024-02-21T01:23:19;6.22;84.22
86008;SHT30;76587;41.936;25.550;2024-02-21T01:25:45;6.25;84.16
86008;SHT30;76587;41.936;25.550;2024-02-21T01:28:10;6.25;84.11
86008;SHT30;76587;41.936;25.550;2024-02-21T01:30:36;6.23;83.76
86008;SHT30;76587;41.936;25.550;2024-02-21T01:33:01;6.28;83.70
86008;SHT30;76587;41.936;25.550;2024-02-21T01:35:27;6.26;83.83
86008;SHT30;76587;41.936;25.550;2024-02-21T01:37:52;6.30;83.63
86008;SHT30;76587;41.936;25.550;2024-02-21T01:40:18;6.34;83.56
86008;SHT30;76587;41.936;25.550;2024-02-21T01:42:43;6.33;83.51
86008;SHT30;76587;41.936;25.550;2024-02-21T01:45:09;6.30;83.44
86008;SHT30;76587;41.936;25.550;2024-02-21T01:47:35;6.32;83.70
86008;SHT30;76587;41.936;25.550;2024-02-21T01:50:02;6.36;83.77
86008;SHT30;76587;41.936;25.550;2024-02-21T01:52:29;6.41;84.06
86008;SHT30;76587;41.936;25.550;2024-02-21T01:54:56;6.40;84.20
86008;SHT30;76587;41.936;25.550;2024-02-21T01:57:23;6.39;84.06
86008;SHT30;76587;41.936;25.550;2024-02-21T01:59:48;6.46;84.21
86008;SHT30;76587;41.936;25.550;2024-02-21T02:02:15;6.47;84.45
86008;SHT30;76587;41.936;25.550;2024-02-21T02:04:42;6.53;84.19
86008;SHT30;76587;41.936;25.550;2024-02-21T02:07:08;6.51;83.93
86008;SHT30;76587;41.936;25.550;2024-02-21T02:09:34;6.54;83.70
86008;SHT30;76587;41.936;25.550;2024-02-21T02:12:00;6.53;83.72
86008;SHT30;76587;41.936;25.550;2024-02-21T02:14:26;6.50;83.50
86008;SHT30;76587;41.936;25.550;2024-02-21T02:16:51;6.49;83.56
86008;SHT30;76587;41.936;25.550;2024-02-21T02:19:17;6.51;83.62
86008;SHT30;76587;41.936;25.550;2024-02-21T02:21:56;6.47;83.55
86008;SHT30;76587;41.936;25.550;2024-02-21T02:24:24;6.49;83.68
86008;SHT30;76587;41.936;25.550;2024-02-21T02:26:52;6.47;83.69
86008;SHT30;76587;41.936;25.550;2024-02-21T02:29:18;6.40;83.55
86008;SHT30;76587;41.936;25.550;2024-02-21T02:31:44;6.37;83.59
86008;SHT30;76587;41.936;25.550;2024-02-21T02:34:09;6.37;83.42
86008;SHT30;76587;41.936;25.550;2024-02-21T02:36:35;6.36;83.55
86008;SHT30;76587;41.936;25.550;2024-02-21T02:39:01;6.34;83.97
86008;SHT30;76587;41.936;25.550;2024-02-21T02:41:26;6.33;84.08
86008;SHT30;76587;41.936;25.550;2024-02-21T02:43:52;6.34;84.24
86008;SHT30;76587;41.936;25.550;2024-02-21T02:46:17;6.29;84.15
86008;SHT30;76587;41.936;25.550;2024-02-21T02:48:43;6.32;84.18
86008;SHT30;76587;41.936;25.550;2024-02-21T02:51:10;6.33;84.20
86008;SHT30;76587;41.936;25.550;2024-02-21T02:53:35;6.25;84.16
86008;SHT30;76587;41.936;25.550;2024-02-21T02:56:01;6.16;84.53
86008;SHT30;76587;41.936;25.550;2024-02-21T02:58:26;6.09;84.28
86008;SHT30;76587;41.936;25.550;2024-02-21T03:00:52;6.03;84.34
86008;SHT30;76587;41.936;25.550;2024-02-21T03:03:17;5.96;84.80
86008;SHT30;76587;41.936;25.550;2024-02-21T03:05:43;5.89;85.05
86008;SHT30;76587;41.936;25.550;2024-02-21T03:08:08;5.86;85.36
86008;SHT30;76587;41.936;25.550;2024-02-21T03:10:34;5.82;85.29
86008;SHT30;76587;41.936;25.550;2024-02-21T03:12:59;5.75;85.36
86008;SHT30;76587;41.936;25.550;2024-02-21T03:15:25;5.66;85.79
86008;SHT30;76587;41.936;25.550;2024-02-21T03:17:50;5.62;85.65
86008;SHT30;76587;41.936;25.550;2024-02-21T03:20:16;5.55;85.97
86008;SHT30;76587;41.936;25.550;2024-02-21T03:22:41;5.51;86.39
86008;SHT30;76587;41.936;25.550;2024-02-21T03:25:08;5.58;86.50
86008;SHT30;76587;41.936;25.550;2024-02-21T03:27:33;5.58;86.79
86008;SHT30;76587;41.936;25.550;2024-02-21T03:29:59;5.65;86.65
86008;SHT30;76587;41.936;25.550;2024-02-21T03:32:24;5.74;86.38
86008;SHT30;76587;41.936;25.550;2024-02-21T03:34:50;5.78;86.20
86008;SHT30;76587;41.936;25.550;2024-02-21T03:37:15;5.72;86.29
86008;SHT30;76587;41.936;25.550;2024-02-21T03:39:41;5.66;86.39
86008;SHT30;76587;41.936;25.550;2024-02-21T03:42:07;5.65;86.56
86008;SHT30;76587;41.936;25.550;2024-02-21T03:44:32;5.69;86.43
86008;SHT30;76587;41.936;25.550;2024-02-21T03:47:01;5.65;86.23
86008;SHT30;76587;41.936;25.550;2024-02-21T03:49:26;5.59;86.39
86008;SHT30;76587;41.936;25.550;2024-02-21T03:51:52;5.62;86.71
86008;SHT30;76587;41.936;25.550;2024-02-21T03:54:18;5.61;86.84
86008;SHT30;76587;41.936;25.550;2024-02-21T03:56:43;5.52;87.08
86008;SHT30;76587;41.936;25.550;2024-02-21T03:59:08;5.52;87.25
86008;SHT30;76587;41.936;25.550;2024-02-21T04:01:35;5.51;87.29
86008;SHT30;76587;41.936;25.550;2024-02-21T04:04:00;5.47;87.52
86008;SHT30;76587;41.936;25.550;2024-02-21T04:06:26;5.44;87.55
86008;SHT30;76587;41.936;25.550;2024-02-21T04:08:51;5.45;87.56
86008;SHT30;76587;41.936;25.550;2024-02-21T04:11:17;5.45;87.66
86008;SHT30;76587;41.936;25.550;2024-02-21T04:13:44;5.42;87.75
86008;SHT30;76587;41.936;25.550;2024-02-21T04:16:10;5.42;87.77
86008;SHT30;76587;41.936;25.550;2024-02-21T04:18:35;5.42;87.70
86008;SHT30;76587;41.936;25.550;2024-02-21T04:21:01;5.45;87.72
86008;SHT30;76587;41.936;25.550;2024-02-21T04:23:26;5.44;87.77
86008;SHT30;76587;41.936;25.550;2024-02-21T04:25:52;5.44;87.89
86008;SHT30;76587;41.936;25.550;2024-02-21T04:28:17;5.52;87.81
86008;SHT30;76587;41.936;25.550;2024-02-21T04:30:43;5.58;87.62
86008;SHT30;76587;41.936;25.550;2024-02-21T04:33:08;5.65;87.46
86008;SHT30;76587;41.936;25.550;2024-02-21T04:35:36;5.75;87.22
86008;SHT30;76587;41.936;25.550;2024-02-21T04:38:01;5.75;87.18
86008;SHT30;76587;41.936;25.550;2024-02-21T04:40:27;5.79;87.10
86008;SHT30;76587;41.936;25.550;2024-02-21T04:42:52;5.79;86.92
86008;SHT30;76587;41.936;25.550;2024-02-21T04:45:18;5.81;86.88
86008;SHT30;76587;41.936;25.550;2024-02-21T04:47:43;5.81;86.76
86008;SHT30;76587;41.936;25.550;2024-02-21T04:50:09;5.81;86.52
86008;SHT30;76587;41.936;25.550;2024-02-21T04:52:35;5.79;86.20
86008;SHT30;76587;41.936;25.550;2024-02-21T04:55:00;5.81;86.08
86008;SHT30;76587;41.936;25.550;2024-02-21T04:57:26;5.78;86.02
86008;SHT30;76587;41.936;25.550;2024-02-21T04:59:51;5.72;85.94
86008;SHT30;76587;41.936;25.550;2024-02-21T05:02:17;5.66;86.03
86008;SHT30;76587;41.936;25.550;2024-02-21T05:04:44;5.62;85.98
86008;SHT30;76587;41.936;25.550;2024-02-21T05:07:10;5.58;86.21
86008;SHT30;76587;41.936;25.550;2024-02-21T05:09:37;5.51;86.49
86008;SHT30;76587;41.936;25.550;2024-02-21T05:12:03;5.47;86.77
86008;SHT30;76587;41.936;25.550;2024-02-21T05:14:28;5.42;86.81
86008;SHT30;76587;41.936;25.550;2024-02-21T05:16:54;5.44;86.92
86008;SHT30;76587;41.936;25.550;2024-02-21T05:19:19;5.45;86.90
86008;SHT30;76587;41.936;25.550;2024-02-21T05:21:45;5.50;86.92
86008;SHT30;76587;41.936;25.550;2024-02-21T05:24:11;5.54;86.85
86008;SHT30;76587;41.936;25.550;2024-02-21T05:26:37;5.56;86.65
86008;SHT30;76587;41.936;25.550;2024-02-21T05:29:02;5.58;86.30
86008;SHT30;76587;41.936;25.550;2024-02-21T05:34:17;5.68;85.94
86008;SHT30;76587;41.936;25.550;2024-02-21T05:36:43;5.74;85.53
86008;SHT30;76587;41.936;25.550;2024-02-21T05:39:08;5.89;85.13
86008;SHT30;76587;41.936;25.550;2024-02-21T05:41:34;5.98;84.59
86008;SHT30;76587;41.936;25.550;2024-02-21T05:43:59;6.13;83.84
86008;SHT30;76587;41.936;25.550;2024-02-21T05:46:24;6.23;83.08
86008;SHT30;76587;41.936;25.550;2024-02-21T05:48:50;6.39;82.52
86008;SHT30;76587;41.936;25.550;2024-02-21T05:51:15;6.56;82.06
86008;SHT30;76587;41.936;25.550;2024-02-21T05:53:41;6.58;81.47
86008;SHT30;76587;41.936;25.550;2024-02-21T05:56:13;6.61;81.23
86008;SHT30;76587;41.936;25.550;2024-02-21T05:58:40;6.70;80.64
86008;SHT30;76587;41.936;25.550;2024-02-21T06:01:06;6.60;81.26
86008;SHT30;76587;41.936;25.550;2024-02-21T06:03:32;6.73;80.55
86008;SHT30;76587;41.936;25.550;2024-02-21T06:05:59;7.19;79.50
86008;SHT30;76587;41.936;25.550;2024-02-21T06:08:24;7.71;77.28
86008;SHT30;76587;41.936;25.550;2024-02-21T06:10:50;8.32;75.37
86008;SHT30;76587;41.936;25.550;2024-02-21T06:13:28;8.54;73.49
86008;SHT30;76587;41.936;25.550;2024-02-21T06:15:53;8.47;73.38
86008;SHT30;76587;41.936;25.550;2024-02-21T06:18:20;8.33;74.05
86008;SHT30;76587;41.936;25.550;2024-02-21T06:20:46;8.36;74.01
86008;SHT30;76587;41.936;25.550;2024-02-21T06:23:12;8.67;73.15
86008;SHT30;76587;41.936;25.550;2024-02-21T06:25:38;8.67;73.20
86008;SHT30;76587;41.936;25.550;2024-02-21T06:28:05;8.58;73.24
86008;SHT30;76587;41.936;25.550;2024-02-21T06:30:30;8.47;73.66
86008;SHT30;76587;41.936;25.550;2024-02-21T06:32:56;8.46;73.85
86008;SHT30;76587;41.936;25.550;2024-02-21T06:35:21;8.36;74.56
86008;SHT30;76587;41.936;25.550;2024-02-21T06:37:49;8.34;74.71
86008;SHT30;76587;41.936;25.550;2024-02-21T06:40:17;8.43;74.45
86008;SHT30;76587;41.936;25.550;2024-02-21T06:42:42;8.41;74.47
86008;SHT30;76587;41.936;25.550;2024-02-21T06:45:08;8.47;73.94
86008;SHT30;76587;41.936;25.550;2024-02-21T06:47:33;8.40;74.62
86008;SHT30;76587;41.936;25.550;2024-02-21T06:49:59;8.33;74.64
86008;SHT30;76587;41.936;25.550;2024-02-21T06:52:24;8.22;74.97
86008;SHT30;76587;41.936;25.550;2024-02-21T06:54:50;8.22;75.23
86008;SHT30;76587;41.936;25.550;2024-02-21T06:57:16;8.29;74.91
86008;SHT30;76587;41.936;25.550;2024-02-21T06:59:41;8.33;74.91
86008;SHT30;76587;41.936;25.550;2024-02-21T07:02:07;8.38;75.03
86008;SHT30;76587;41.936;25.550;2024-02-21T07:04:33;8.43;74.97
86008;SHT30;76587;41.936;25.550;2024-02-21T07:06:59;8.50;74.82
86008;SHT30;76587;41.936;25.550;2024-02-21T07:09:24;8.57;74.65
86008;SHT30;76587;41.936;25.550;2024-02-21T07:11:50;8.60;74.49
86008;SHT30;76587;41.936;25.550;2024-02-21T07:14:15;8.70;74.19
86008;SHT30;76587;41.936;25.550;2024-02-21T07:16:41;8.78;73.93
86008;SHT30;76587;41.936;25.550;2024-02-21T07:19:06;8.85;73.59
86008;SHT30;76587;41.936;25.550;2024-02-21T07:21:32;9.04;73.08
86008;SHT30;76587;41.936;25.550;2024-02-21T07:23:57;9.11;72.82
86008;SHT30;76587;41.936;25.550;2024-02-21T07:26:23;9.43;72.16
86008;SHT30;76587;41.936;25.550;2024-02-21T07:28:48;9.80;70.60
86008;SHT30;76587;41.936;25.550;2024-02-21T07:31:14;9.89;69.80
86008;SHT30;76587;41.936;25.550;2024-02-21T07:33:39;10.09;69.34
86008;SHT30;76587;41.936;25.550;2024-02-21T07:36:07;10.27;68.57
86008;SHT30;76587;41.936;25.550;2024-02-21T07:38:33;10.63;68.15
86008;SHT30;76587;41.936;25.550;2024-02-21T07:40:59;11.18;66.37
86008;SHT30;76587;41.936;25.550;2024-02-21T07:43:24;12.91;60.82
86008;SHT30;76587;41.936;25.550;2024-02-21T07:45:52;14.44;56.22
86008;SHT30;76587;41.936;25.550;2024-02-21T07:48:18;15.82;51.79
86008;SHT30;76587;41.936;25.550;2024-02-21T07:50:44;15.67;49.72
86008;SHT30;76587;41.936;25.550;2024-02-21T07:53:10;15.43;50.08
86008;SHT30;76587;41.936;25.550;2024-02-21T07:55:35;15.40;50.05
86008;SHT30;76587;41.936;25.550;2024-02-21T07:58:00;15.06;50.86
86008;SHT30;76587;41.936;25.550;2024-02-21T08:00:26;14.55;52.21
86008;SHT30;76587;41.936;25.550;2024-02-21T08:02:52;14.41;52.56
86008;SHT30;76587;41.936;25.550;2024-02-21T08:05:17;14.28;53.01
86008;SHT30;76587;41.936;25.550;2024-02-21T08:07:43;14.57;52.72
86008;SHT30;76587;41.936;25.550;2024-02-21T08:10:08;14.71;52.04
86008;SHT30;76587;41.936;25.550;2024-02-21T08:12:34;14.47;52.84
86008;SHT30;76587;41.936;25.550;2024-02-21T08:15:00;14.74;52.45
86008;SHT30;76587;41.936;25.550;2024-02-21T08:17:25;14.79;52.34
86008;SHT30;76587;41.936;25.550;2024-02-21T08:19:51;14.68;52.68
86008;SHT30;76587;41.936;25.550;2024-02-21T08:22:16;14.65;53.00
86008;SHT30;76587;41.936;25.550;2024-02-21T08:24:42;14.93;51.66
86008;SHT30;76587;41.936;25.550;2024-02-21T08:27:07;14.93;51.60
86008;SHT30;76587;41.936;25.550;2024-02-21T08:29:32;15.09;51.01
86008;SHT30;76587;41.936;25.550;2024-02-21T08:31:58;15.02;51.08
86008;SHT30;76587;41.936;25.550;2024-02-21T08:34:23;14.54;52.72
86008;SHT30;76587;41.936;25.550;2024-02-21T08:36:49;14.63;52.21
86008;SHT30;76587;41.936;25.550;2024-02-21T08:39:15;14.45;52.64
86008;SHT30;76587;41.936;25.550;2024-02-21T08:41:42;14.72;52.20
86008;SHT30;76587;41.936;25.550;2024-02-21T08:44:08;15.23;50.50
86008;SHT30;76587;41.936;25.550;2024-02-21T08:46:33;16.81;46.61
86008;SHT30;76587;41.936;25.550;2024-02-21T08:48:59;18.31;43.50
86008;SHT30;76587;41.936;25.550;2024-02-21T08:51:24;18.98;41.34
86008;SHT30;76587;41.936;25.550;2024-02-21T08:53:50;20.00;39.16
86008;SHT30;76587;41.936;25.550;2024-02-21T08:56:17;21.22;36.98
86008;SHT30;76587;41.936;25.550;2024-02-21T08:58:43;21.82;35.75
86008;SHT30;76587;41.936;25.550;2024-02-21T09:01:08;22.64;33.90
86008;SHT30;76587;41.936;25.550;2024-02-21T09:03:38;23.27;32.68
86008;SHT30;76587;41.936;25.550;2024-02-21T09:06:07;23.53;32.21
86008;SHT30;76587;41.936;25.550;2024-02-21T09:08:33;23.59;31.67
86008;SHT30;76587;41.936;25.550;2024-02-21T09:10:59;22.99;32.77
86008;SHT30;76587;41.936;25.550;2024-02-21T09:13:25;23.19;32.07
86008;SHT30;76587;41.936;25.550;2024-02-21T09:15:51;24.63;30.42
86008;SHT30;76587;41.936;25.550;2024-02-21T09:18:16;24.63;30.23
86008;SHT30;76587;41.936;25.550;2024-02-21T09:20:42;24.89;29.12
86008;SHT30;76587;41.936;25.550;2024-02-21T09:23:08;25.16;29.12
86008;SHT30;76587;41.936;25.550;2024-02-21T09:25:33;25.40;28.58
86008;SHT30;76587;41.936;25.550;2024-02-21T09:28:01;24.91;29.26
86008;SHT30;76587;41.936;25.550;2024-02-21T09:30:27;26.00;28.45
86008;SHT30;76587;41.936;25.550;2024-02-21T09:32:52;26.38;27.09
86008;SHT30;76587;41.936;25.550;2024-02-21T09:35:18;26.24;27.11
86008;SHT30;76587;41.936;25.550;2024-02-21T09:37:43;26.17;27.31
86008;SHT30;76587;41.936;25.550;2024-02-21T09:40:09;25.87;27.36
86008;SHT30;76587;41.936;25.550;2024-02-21T09:42:39;25.94;27.55
86008;SHT30;76587;41.936;25.550;2024-02-21T09:45:09;23.19;30.87
86008;SHT30;76587;41.936;25.550;2024-02-21T09:50:33;24.50;29.11
86008;SHT30;76587;41.936;25.550;2024-02-21T09:53:00;24.88;28.47
86008;SHT30;76587;41.936;25.550;2024-02-21T09:55:29;25.39;28.00
86008;SHT30;76587;41.936;25.550;2024-02-21T09:57:58;26.04;27.16
86008;SHT30;76587;41.936;25.550;2024-02-21T10:00:24;25.79;27.39
86008;SHT30;76587;41.936;25.550;2024-02-21T10:02:49;24.88;28.30
86008;SHT30;76587;41.936;25.550;2024-02-21T10:05:16;25.63;26.80
86008;SHT30;76587;41.936;25.550;2024-02-21T10:07:43;25.42;26.87
86008;SHT30;76587;41.936;25.550;2024-02-21T10:10:09;26.04;26.40
86008;SHT30;76587;41.936;25.550;2024-02-21T10:12:35;26.33;26.13
86008;SHT30;76587;41.936;25.550;2024-02-21T10:15:02;25.50;26.56
86008;SHT30;76587;41.936;25.550;2024-02-21T10:17:28;24.48;27.31
86008;SHT30;76587;41.936;25.550;2024-02-21T10:19:53;23.65;29.70
86008;SHT30;76587;41.936;25.550;2024-02-21T10:22:19;22.71;30.54
86008;SHT30;76587;41.936;25.550;2024-02-21T10:24:46;21.36;32.85
86008;SHT30;76587;41.936;25.550;2024-02-21T10:27:12;20.30;34.38
86008;SHT30;76587;41.936;25.550;2024-02-21T10:29:38;19.40;36.24
86008;SHT30;76587;41.936;25.550;2024-02-21T10:32:13;18.68;36.57
86008;SHT30;76587;41.936;25.550;2024-02-21T10:34:41;17.86;38.03
86008;SHT30;76587;41.936;25.550;2024-02-21T10:37:08;18.01;38.21
86008;SHT30;76587;41.936;25.550;2024-02-21T10:39:37;18.21;37.29
86008;SHT30;76587;41.936;25.550;2024-02-21T10:42:03;17.46;38.64
86008;SHT30;76587;41.936;25.550;2024-02-21T10:44:30;16.76;38.51
86008;SHT30;76587;41.936;25.550;2024-02-21T10:46:56;17.66;36.91
86008;SHT30;76587;41.936;25.550;2024-02-21T10:49:23;19.13;33.94
86008;SHT30;76587;41.936;25.550;2024-02-21T10:57:16;22.58;27.64
86008;SHT30;76587;41.936;25.550;2024-02-21T10:59:44;23.56;26.03
86008;SHT30;76587;41.936;25.550;2024-02-21T11:02:10;24.69;24.89
86008;SHT30;76587;41.936;25.550;2024-02-21T11:04:36;25.74;24.06
86008;SHT30;76587;41.936;25.550;2024-02-21T11:07:05;26.65;23.71
86008;SHT30;76587;41.936;25.550;2024-02-21T11:09:31;26.69;23.11
86008;SHT30;76587;41.936;25.550;2024-02-21T11:12:06;27.12;21.16
86008;SHT30;76587;41.936;25.550;2024-02-21T11:14:32;27.46;20.30
86008;SHT30;76587;41.936;25.550;2024-02-21T11:16:58;27.03;21.87
86008;SHT30;76587;41.936;25.550;2024-02-21T11:19:28;27.45;21.42
86008;SHT30;76587;41.936;25.550;2024-02-21T11:21:56;26.64;21.53
86008;SHT30;76587;41.936;25.550;2024-02-21T11:26:56;26.61;20.94
86008;SHT30;76587;41.936;25.550;2024-02-21T11:29:24;25.42;21.78
86008;SHT30;76587;41.936;25.550;2024-02-21T11:31:51;25.54;23.01
86008;SHT30;76587;41.936;25.550;2024-02-21T11:34:20;24.76;21.86
86008;SHT30;76587;41.936;25.550;2024-02-21T11:36:49;24.44;22.50
86008;SHT30;76587;41.936;25.550;2024-02-21T11:39:23;24.63;23.33
86008;SHT30;76587;41.936;25.550;2024-02-21T11:42:06;23.93;23.39
86008;SHT30;76587;41.936;25.550;2024-02-21T11:44:34;22.78;24.72
86008;SHT30;76587;41.936;25.550;2024-02-21T11:47:00;22.44;25.18
86008;SHT30;76587;41.936;25.550;2024-02-21T11:49:28;22.43;24.77
86008;SHT30;76587;41.936;25.550;2024-02-21T11:52:01;21.84;24.77
86008;SHT30;76587;41.936;25.550;2024-02-21T11:54:27;21.19;25.14
86008;SHT30;76587;41.936;25.550;2024-02-21T11:56:53;20.78;25.83
86008;SHT30;76587;41.936;25.550;2024-02-21T11:59:19;20.82;26.24
86008;SHT30;76587;41.936;25.550;2024-02-21T12:01:44;20.27;27.77
86008;SHT30;76587;41.936;25.550;2024-02-21T12:04:10;19.74;28.20
86008;SHT30;76587;41.936;25.550;2024-02-21T12:06:35;19.27;28.85
86008;SHT30;76587;41.936;25.550;2024-02-21T12:09:01;19.03;29.55
86008;SHT30;76587;41.936;25.550;2024-02-21T12:11:26;18.68;29.98
86008;SHT30;76587;41.936;25.550;2024-02-21T12:14:01;18.18;30.53
86008;SHT30;76587;41.936;25.550;2024-02-21T12:16:29;17.76;31.21
86008;SHT30;76587;41.936;25.550;2024-02-21T12:18:55;17.36;32.19
86008;SHT30;76587;41.936;25.550;2024-02-21T12:21:30;16.99;32.43
86008;SHT30;76587;41.936;25.550;2024-02-21T12:23:55;16.89;33.04
86008;SHT30;76587;41.936;25.550;2024-02-21T12:26:21;16.72;32.45
86008;SHT30;76587;41.936;25.550;2024-02-21T12:28:47;16.55;32.87
86008;SHT30;76587;41.936;25.550;2024-02-21T12:31:13;16.40;31.86
86008;SHT30;76587;41.936;25.550;2024-02-21T12:33:39;16.14;32.30
86008;SHT30;76587;41.936;25.550;2024-02-21T12:36:04;16.01;32.07
86008;SHT30;76587;41.936;25.550;2024-02-21T12:38:30;15.97;34.28
86008;SHT30;76587;41.936;25.550;2024-02-21T12:40:55;15.74;34.19
86008;SHT30;76587;41.936;25.550;2024-02-21T12:43:23;15.69;33.51
86008;SHT30;76587;41.936;25.550;2024-02-21T12:45:49;15.50;33.38
86008;SHT30;76587;41.936;25.550;2024-02-21T12:48:14;15.19;33.35
86008;SHT30;76587;41.936;25.550;2024-02-21T12:50:48;15.05;33.89
86008;SHT30;76587;41.936;25.550;2024-02-21T12:53:15;15.01;38.29
86008;SHT30;76587;41.936;25.550;2024-02-21T12:55:41;15.22;40.08
86008;SHT30;76587;41.936;25.550;2024-02-21T12:58:06;15.65;38.68
86008;SHT30;76587;41.936;25.550;2024-02-21T13:00:32;16.03;35.40
86008;SHT30;76587;41.936;25.550;2024-02-21T13:02:58;16.11;33.03
86008;SHT30;76587;41.936;25.550;2024-02-21T13:05:24;16.18;32.16
86008;SHT30;76587;41.936;25.550;2024-02-21T13:07:49;16.30;32.58
86008;SHT30;76587;41.936;25.550;2024-02-21T13:10:15;16.08;33.34
86008;SHT30;76587;41.936;25.550;2024-02-21T13:12:40;16.20;33.32
86008;SHT30;76587;41.936;25.550;2024-02-21T13:15:06;16.20;33.55
86008;SHT30;76587;41.936;25.550;2024-02-21T13:17:32;16.27;33.11
86008;SHT30;76587;41.936;25.550;2024-02-21T13:19:58;16.34;33.38
86008;SHT30;76587;41.936;25.550;2024-02-21T13:22:24;16.44;33.28
86008;SHT30;76587;41.936;25.550;2024-02-21T13:24:51;16.32;33.23
86008;SHT30;76587;41.936;25.550;2024-02-21T13:27:17;16.30;33.52
86008;SHT30;76587;41.936;25.550;2024-02-21T13:29:42;16.30;33.61
86008;SHT30;76587;41.936;25.550;2024-02-21T13:32:08;16.27;33.72
86008;SHT30;76587;41.936;25.550;2024-02-21T13:34:33;16.30;33.31
86008;SHT30;76587;41.936;25.550;2024-02-21T13:36:59;16.24;32.06
86008;SHT30;76587;41.936;25.550;2024-02-21T13:39:25;16.25;31.77
86008;SHT30;76587;41.936;25.550;2024-02-21T13:41:50;16.21;31.06
86008;SHT30;76587;41.936;25.550;2024-02-21T13:44:16;16.03;31.24
86008;SHT30;76587;41.936;25.550;2024-02-21T13:46:41;15.86;31.78
86008;SHT30;76587;41.936;25.550;2024-02-21T13:49:07;15.70;32.31
86008;SHT30;76587;41.936;25.550;2024-02-21T13:51:35;15.49;32.61
86008;SHT30;76587;41.936;25.550;2024-02-21T13:54:02;15.32;33.40
86008;SHT30;76587;41.936;25.550;2024-02-21T13:56:29;15.23;33.69
86008;SHT30;76587;41.936;25.550;2024-02-21T13:58:54;15.12;33.42
86008;SHT30;76587;41.936;25.550;2024-02-21T14:01:20;15.01;33.97
86008;SHT30;76587;41.936;25.550;2024-02-21T14:03:45;14.85;34.28
86008;SHT30;76587;41.936;25.550;2024-02-21T14:06:11;14.75;34.76
86008;SHT30;76587;41.936;25.550;2024-02-21T14:08:37;14.63;34.49
86008;SHT30;76587;41.936;25.550;2024-02-21T14:11:05;14.47;34.93
86008;SHT30;76587;41.936;25.550;2024-02-21T14:13:31;14.34;35.59
86008;SHT30;76587;41.936;25.550;2024-02-21T14:15:57;14.20;35.71
86008;SHT30;76587;41.936;25.550;2024-02-21T14:18:22;14.21;35.80
86008;SHT30;76587;41.936;25.550;2024-02-21T14:20:48;14.16;35.76
86008;SHT30;76587;41.936;25.550;2024-02-21T14:23:13;14.01;35.67
86008;SHT30;76587;41.936;25.550;2024-02-21T14:25:39;13.96;36.02
86008;SHT30;76587;41.936;25.550;2024-02-21T14:28:05;13.89;36.05
86008;SHT30;76587;41.936;25.550;2024-02-21T14:30:31;13.79;36.45
86008;SHT30;76587;41.936;25.550;2024-02-21T14:32:56;13.76;36.29
86008;SHT30;76587;41.936;25.550;2024-02-21T14:35:22;13.63;36.59
86008;SHT30;76587;41.936;25.550;2024-02-21T14:37:47;13.49;36.99
86008;SHT30;76587;41.936;25.550;2024-02-21T14:40:16;13.38;37.61
86008;SHT30;76587;41.936;25.550;2024-02-21T14:42:41;13.32;38.32
86008;SHT30;76587;41.936;25.550;2024-02-21T14:45:07;13.30;38.69
86008;SHT30;76587;41.936;25.550;2024-02-21T14:47:33;13.19;38.88
86008;SHT30;76587;41.936;25.550;2024-02-21T14:49:58;13.16;39.25
86008;SHT30;76587;41.936;25.550;2024-02-21T14:52:24;13.18;38.96
86008;SHT30;76587;41.936;25.550;2024-02-21T14:54:50;13.15;39.28
86008;SHT30;76587;41.936;25.550;2024-02-21T14:57:19;13.06;39.24
86008;SHT30;76587;41.936;25.550;2024-02-21T14:59:45;13.01;39.40
86008;SHT30;76587;41.936;25.550;2024-02-21T15:02:11;12.94;39.51
86008;SHT30;76587;41.936;25.550;2024-02-21T15:04:36;12.88;39.63
86008;SHT30;76587;41.936;25.550;2024-02-21T15:07:02;12.82;39.90
86008;SHT30;76587;41.936;25.550;2024-02-21T15:09:28;12.81;39.64
86008;SHT30;76587;41.936;25.550;2024-02-21T15:11:54;12.68;39.24
86008;SHT30;76587;41.936;25.550;2024-02-21T15:14:19;12.68;39.13
86008;SHT30;76587;41.936;25.550;2024-02-21T15:16:45;12.65;39.27
86008;SHT30;76587;41.936;25.550;2024-02-21T15:19:11;12.62;39.58
86008;SHT30;76587;41.936;25.550;2024-02-21T15:21:36;12.55;39.66
86008;SHT30;76587;41.936;25.550;2024-02-21T15:24:02;12.57;38.69
86008;SHT30;76587;41.936;25.550;2024-02-21T15:26:29;12.57;38.32
86008;SHT30;76587;41.936;25.550;2024-02-21T15:28:55;12.51;37.90